Time;durP1;ratioP1;P1;durP2;ratioP2;P2;SDS_P1;SDS_P2;PMS_P1;PMS_P2;Temp;Humidity;BMP_temperature;BMP_pressure;BME280_temperature;BME280_humidity;BME280_pressure;Samples;Min_cycle;Max_cycle;Signal;HPM_P1;HPM_P2
2021/03/19 00:00:19;;;;;;;8.65;5.78;;;5.70;58.90;;;;;;4944333;28;20039;-63
2021/03/19 00:02:49;;;;;;;9.45;5.55;;;5.70;58.80;;;;;;4947285;28;20038;-63
2021/03/19 00:05:17;;;;;;;8.40;5.25;;;5.70;58.80;;;;;;4938880;28;20053;-63
2021/03/19 00:07:47;;;;;;;14.10;6.60;;;5.70;58.70;;;;;;4939728;28;20499;-63
2021/03/19 00:10:18;;;;;;;9.77;5.88;;;5.70;58.70;;;;;;4942592;28;20074;-63
2021/03/19 00:12:47;;;;;;;13.07;5.97;;;5.60;58.60;;;;;;4948970;28;20054;-63
2021/03/19 00:15:13;;;;;;;11.02;6.07;;;5.60;58.60;;;;;;4947366;28;20065;-63
2021/03/19 00:17:40;;;;;;;13.07;6.10;;;5.60;58.60;;;;;;4949192;28;20463;-63
2021/03/19 00:20:07;;;;;;;13.13;6.38;;;5.60;58.60;;;;;;4948060;28;20090;-63
2021/03/19 00:22:33;;;;;;;10.52;6.03;;;5.50;58.50;;;;;;4949617;28;20042;-62
2021/03/19 00:24:59;;;;;;;12.43;6.65;;;5.50;58.40;;;;;;4954454;28;20073;-63
2021/03/19 00:27:24;;;;;;;13.73;6.85;;;5.50;58.40;;;;;;4951319;28;20077;-62
2021/03/19 00:29:50;;;;;;;12.43;6.38;;;5.40;58.30;;;;;;4956187;28;20041;-62
2021/03/19 00:32:18;;;;;;;12.40;6.93;;;5.40;58.30;;;;;;4958133;28;20503;-63
2021/03/19 00:34:43;;;;;;;13.05;7.05;;;5.30;58.20;;;;;;4945323;28;20046;-63
2021/03/19 00:37:09;;;;;;;14.60;6.55;;;5.30;58.20;;;;;;4954678;28;20051;-63
2021/03/19 00:39:35;;;;;;;12.07;6.38;;;5.20;58.30;;;;;;4953304;28;20129;-63
2021/03/19 00:42:03;;;;;;;10.48;6.20;;;5.20;58.30;;;;;;4957457;28;20177;-62
2021/03/19 00:44:29;;;;;;;12.82;6.30;;;5.20;58.30;;;;;;4952331;28;20446;-62
2021/03/19 00:46:55;;;;;;;13.32;6.65;;;5.10;58.20;;;;;;4955913;28;20027;-62
2021/03/19 00:49:20;;;;;;;12.35;6.57;;;5.10;58.30;;;;;;4952864;28;20046;-63
2021/03/19 00:51:46;;;;;;;13.48;6.80;;;5.10;58.40;;;;;;4957563;28;20396;-63
2021/03/19 00:54:12;;;;;;;12.68;6.82;;;5.10;58.40;;;;;;4949060;28;20114;-63
2021/03/19 00:56:38;;;;;;;14.35;6.95;;;5.00;58.30;;;;;;4953549;28;20611;-62
2021/03/19 00:59:06;;;;;;;12.18;7.05;;;5.00;58.40;;;;;;4942168;28;20039;-62
2021/03/19 01:01:34;;;;;;;12.82;6.60;;;5.00;58.40;;;;;;4953830;28;20043;-62
2021/03/19 01:03:59;;;;;;;13.70;7.35;;;5.00;58.40;;;;;;4953505;28;20479;-62
2021/03/19 01:06:25;;;;;;;13.85;8.10;;;5.00;58.40;;;;;;4955806;28;20050;-63
2021/03/19 01:08:50;;;;;;;17.50;8.15;;;4.90;58.40;;;;;;4958740;28;20042;-63
2021/03/19 01:11:16;;;;;;;19.10;8.52;;;4.90;58.40;;;;;;4960593;28;20053;-63
2021/03/19 01:13:42;;;;;;;18.15;9.02;;;4.90;58.40;;;;;;4962385;28;20423;-62
2021/03/19 01:16:07;;;;;;;16.88;8.57;;;4.90;58.50;;;;;;4958228;28;20061;-62
2021/03/19 01:18:33;;;;;;;17.10;8.55;;;4.90;58.50;;;;;;4949121;28;20026;-62
2021/03/19 01:21:01;;;;;;;16.90;7.80;;;4.90;58.50;;;;;;4955687;28;20131;-63
2021/03/19 01:23:29;;;;;;;14.90;7.80;;;4.80;58.50;;;;;;4963950;28;20034;-63
2021/03/19 01:25:55;;;;;;;15.45;8.77;;;4.80;58.50;;;;;;4958663;28;20046;-63
2021/03/19 01:28:21;;;;;;;13.65;8.00;;;4.80;58.50;;;;;;4961914;28;20065;-62
2021/03/19 01:30:47;;;;;;;14.50;8.15;;;4.80;58.60;;;;;;4955976;28;20050;-63
2021/03/19 01:33:16;;;;;;;18.33;8.80;;;4.80;58.70;;;;;;4960281;28;20634;-63
2021/03/19 01:35:42;;;;;;;15.32;7.97;;;4.80;58.70;;;;;;4954758;28;20042;-62
2021/03/19 01:38:09;;;;;;;15.70;9.27;;;4.80;58.70;;;;;;4947442;28;20054;-63
2021/03/19 01:40:46;;;;;;;15.00;8.38;;;4.80;58.70;;;;;;4957787;28;20121;-62
2021/03/19 01:43:35;;;;;;;18.63;10.38;;;4.70;58.60;;;;;;4952762;28;20090;-63
2021/03/19 01:46:40;;;;;;;16.55;8.43;;;4.70;58.70;;;;;;4960286;28;20057;-62
2021/03/19 01:49:43;;;;;;;15.75;8.05;;;4.60;58.60;;;;;;4951985;28;20510;-63
2021/03/19 01:52:46;;;;;;;13.15;7.93;;;4.60;58.70;;;;;;4955003;28;20050;-62
2021/03/19 01:55:49;;;;;;;18.60;8.35;;;4.50;58.60;;;;;;4929346;28;20047;-62
2021/03/19 01:58:52;;;;;;;16.20;8.43;;;4.50;58.70;;;;;;4956726;28;22332;-62
2021/03/19 02:01:55;;;;;;;14.75;7.55;;;4.40;58.70;;;;;;4959213;28;20101;-62
2021/03/19 02:04:59;;;;;;;15.40;8.70;;;4.40;58.80;;;;;;4955961;28;20043;-62
2021/03/19 02:08:02;;;;;;;20.58;8.43;;;4.30;58.90;;;;;;4952916;28;22111;-62
2021/03/19 02:11:05;;;;;;;17.20;8.52;;;4.30;58.90;;;;;;4955093;28;20074;-62
2021/03/19 02:14:11;;;;;;;16.98;8.50;;;4.30;58.90;;;;;;4949702;28;20043;-62
2021/03/19 02:17:14;;;;;;;12.73;6.97;;;4.20;58.80;;;;;;4954194;28;20044;-62
2021/03/19 02:20:17;;;;;;;14.70;7.70;;;4.20;58.90;;;;;;4962018;28;20045;-62
2021/03/19 02:23:20;;;;;;;15.57;8.07;;;4.10;58.90;;;;;;4952342;28;20066;-62
2021/03/19 02:26:23;;;;;;;14.32;8.35;;;4.10;59.00;;;;;;4926628;28;20105;-62
2021/03/19 02:29:27;;;;;;;12.90;6.97;;;4.10;59.00;;;;;;4960052;28;20118;-62
2021/03/19 02:32:06;;;;;;;18.58;7.85;;;4.00;59.00;;;;;;4952508;28;20046;-62
2021/03/19 02:34:44;;;;;;;17.23;8.10;;;3.90;58.90;;;;;;4967189;28;20042;-62
2021/03/19 02:37:20;;;;;;;17.50;7.55;;;3.90;59.00;;;;;;4958275;28;20049;-63
2021/03/19 02:39:46;;;;;;;16.05;8.48;;;3.90;59.00;;;;;;4955005;28;20134;-62
2021/03/19 02:42:14;;;;;;;19.48;9.10;;;3.90;59.10;;;;;;4948525;28;20039;-62
2021/03/19 02:44:41;;;;;;;15.93;8.38;;;3.90;59.10;;;;;;4952505;28;20038;-62
2021/03/19 02:47:07;;;;;;;13.82;7.45;;;3.90;59.10;;;;;;4959698;28;20503;-62
2021/03/19 02:49:32;;;;;;;20.00;8.15;;;3.90;59.10;;;;;;4950380;28;20055;-62
2021/03/19 02:51:58;;;;;;;13.65;7.75;;;3.90;59.10;;;;;;4952905;28;20045;-62
2021/03/19 02:54:26;;;;;;;20.42;8.18;;;3.90;59.10;;;;;;4952889;28;20146;-62
2021/03/19 02:56:52;;;;;;;18.50;8.55;;;3.90;59.10;;;;;;4950387;28;20143;-62
2021/03/19 02:59:18;;;;;;;16.00;7.93;;;3.90;59.10;;;;;;4962265;28;20391;-62
2021/03/19 03:01:45;;;;;;;14.38;8.07;;;3.80;59.10;;;;;;4949542;28;20758;-62
2021/03/19 03:04:11;;;;;;;15.70;8.35;;;3.80;59.10;;;;;;4944529;28;20194;-63
2021/03/19 03:06:48;;;;;;;14.90;7.75;;;3.80;59.10;;;;;;4946099;28;20058;-61
2021/03/19 03:09:17;;;;;;;16.15;8.02;;;3.80;59.10;;;;;;4941236;28;20610;-61
2021/03/19 03:11:43;;;;;;;14.38;8.35;;;3.80;59.10;;;;;;4945467;28;20103;-61
2021/03/19 03:14:12;;;;;;;16.77;9.20;;;3.70;59.00;;;;;;4945847;28;20054;-61
2021/03/19 03:16:40;;;;;;;14.70;8.07;;;3.70;59.10;;;;;;4947981;28;20082;-61
2021/03/19 03:19:08;;;;;;;13.30;7.70;;;3.70;59.10;;;;;;4956923;28;20042;-61
2021/03/19 03:21:34;;;;;;;15.73;7.80;;;3.70;59.10;;;;;;4949251;28;20053;-61
2021/03/19 03:24:00;;;;;;;14.98;8.02;;;3.70;59.20;;;;;;4943797;28;20391;-61
2021/03/19 03:26:29;;;;;;;16.23;7.47;;;3.70;59.20;;;;;;4942936;28;20116;-61
2021/03/19 03:28:58;;;;;;;13.73;6.88;;;3.70;59.60;;;;;;4960810;28;20056;-60
2021/03/19 03:31:26;;;;;;;14.32;7.95;;;3.70;59.30;;;;;;4945956;28;20561;-61
2021/03/19 03:33:54;;;;;;;13.45;7.57;;;3.70;59.20;;;;;;4951330;28;20089;-61
2021/03/19 03:36:21;;;;;;;12.75;7.32;;;3.70;59.30;;;;;;4946256;28;20039;-60
2021/03/19 03:38:47;;;;;;;14.25;7.45;;;3.70;59.40;;;;;;4952127;28;20043;-60
2021/03/19 03:41:22;;;;;;;15.02;6.80;;;3.70;59.40;;;;;;4938932;28;20610;-61
2021/03/19 03:43:50;;;;;;;16.73;7.97;;;3.70;59.30;;;;;;4940210;28;20031;-61
2021/03/19 03:46:20;;;;;;;13.13;7.13;;;3.60;59.20;;;;;;4944172;28;20042;-61
2021/03/19 03:48:46;;;;;;;15.93;7.28;;;3.60;59.20;;;;;;4944713;28;20155;-61
2021/03/19 03:51:14;;;;;;;15.43;8.30;;;3.60;59.20;;;;;;4941659;28;20500;-61
2021/03/19 03:53:44;;;;;;;15.70;7.70;;;3.60;59.20;;;;;;4941315;28;20078;-62
2021/03/19 03:56:13;;;;;;;12.30;7.65;;;3.60;59.30;;;;;;4944323;28;20034;-62
2021/03/19 03:58:39;;;;;;;14.82;7.22;;;3.60;59.30;;;;;;4945138;28;20039;-61
2021/03/19 04:01:06;;;;;;;14.75;6.72;;;3.50;59.20;;;;;;4945992;28;20046;-61
2021/03/19 04:03:32;;;;;;;14.55;7.53;;;3.50;59.30;;;;;;4946015;28;20031;-61
2021/03/19 04:05:58;;;;;;;11.10;6.93;;;3.50;59.50;;;;;;4944465;28;20034;-61
2021/03/19 04:08:28;;;;;;;14.52;7.68;;;3.50;59.50;;;;;;4955134;28;20023;-61
2021/03/19 04:10:59;;;;;;;11.82;6.93;;;3.50;59.60;;;;;;4946218;28;20039;-61
2021/03/19 04:13:27;;;;;;;11.90;6.35;;;3.60;59.50;;;;;;4944306;28;20035;-61
2021/03/19 04:15:54;;;;;;;14.52;7.50;;;3.50;59.40;;;;;;4947740;28;20098;-61
2021/03/19 04:18:22;;;;;;;12.35;6.95;;;3.50;59.40;;;;;;4951530;28;20724;-61
2021/03/19 04:20:52;;;;;;;12.27;7.18;;;3.50;59.50;;;;;;4948036;28;20502;-61
2021/03/19 04:23:18;;;;;;;12.13;6.93;;;3.50;59.60;;;;;;4952156;28;20027;-61
2021/03/19 04:25:46;;;;;;;11.77;6.70;;;3.50;59.60;;;;;;4944443;28;20069;-61
2021/03/19 04:28:19;;;;;;;11.80;6.05;;;3.50;59.60;;;;;;4948994;28;20078;-62
2021/03/19 04:30:45;;;;;;;10.77;6.25;;;3.50;59.60;;;;;;4945033;28;20039;-61
2021/03/19 04:33:25;;;;;;;13.68;6.20;;;3.50;59.60;;;;;;4944287;28;20046;-62
2021/03/19 04:36:27;;;;;;;12.02;6.45;;;3.50;59.50;;;;;;4943478;28;20591;-62
2021/03/19 04:38:56;;;;;;;11.02;6.40;;;3.50;59.40;;;;;;4943381;28;20439;-61
2021/03/19 04:41:22;;;;;;;10.65;5.90;;;3.50;59.40;;;;;;4945277;28;20162;-62
2021/03/19 04:43:48;;;;;;;10.77;6.05;;;3.40;59.40;;;;;;4942853;28;20479;-62
2021/03/19 04:46:16;;;;;;;11.40;6.57;;;3.40;59.40;;;;;;4940833;28;20070;-62
2021/03/19 04:48:43;;;;;;;12.27;7.00;;;3.40;59.50;;;;;;4941930;28;20487;-63
2021/03/19 04:51:12;;;;;;;16.50;6.90;;;3.30;59.40;;;;;;4937286;28;20039;-63
2021/03/19 04:53:40;;;;;;;11.07;6.60;;;3.30;59.40;;;;;;4934879;28;20480;-62
2021/03/19 04:56:05;;;;;;;13.73;7.30;;;3.30;59.40;;;;;;4946123;28;20045;-62
2021/03/19 04:58:33;;;;;;;11.55;6.60;;;3.30;59.50;;;;;;4939788;28;20046;-61
2021/03/19 05:00:59;;;;;;;10.27;5.95;;;3.30;59.50;;;;;;4952663;28;20035;-62
2021/03/19 05:03:24;;;;;;;12.52;7.10;;;3.30;59.50;;;;;;4942828;28;20035;-62
2021/03/19 05:05:50;;;;;;;12.27;6.82;;;3.20;59.50;;;;;;4934667;28;20035;-62
2021/03/19 05:08:18;;;;;;;14.50;7.30;;;3.20;60.20;;;;;;4949893;28;20035;-62
2021/03/19 05:10:43;;;;;;;15.30;6.65;;;3.20;59.60;;;;;;4940266;28;20030;-61
2021/03/19 05:13:09;;;;;;;12.00;7.07;;;3.20;59.60;;;;;;4930815;28;20071;-62
2021/03/19 05:15:37;;;;;;;11.05;6.55;;;3.20;59.70;;;;;;4945248;28;20059;-62
2021/03/19 05:18:03;;;;;;;10.93;6.35;;;3.20;59.70;;;;;;4937697;28;20047;-62
2021/03/19 05:20:31;;;;;;;13.63;7.20;;;3.20;60.10;;;;;;4935885;28;20042;-63
2021/03/19 05:22:57;;;;;;;14.57;6.93;;;3.20;59.70;;;;;;4944729;28;20039;-62
2021/03/19 05:25:30;;;;;;;9.50;6.95;;;3.30;59.70;;;;;;4939912;28;20046;-62
2021/03/19 05:27:55;;;;;;;14.70;7.22;;;3.20;59.80;;;;;;4939567;28;20391;-62
2021/03/19 05:30:23;;;;;;;12.43;7.45;;;3.20;59.70;;;;;;4932116;28;20077;-63
2021/03/19 05:32:51;;;;;;;12.40;7.03;;;3.20;59.80;;;;;;4944152;28;20049;-62
2021/03/19 05:35:23;;;;;;;19.33;7.80;;;3.30;59.90;;;;;;4950392;28;20045;-63
2021/03/19 05:37:50;;;;;;;15.32;6.47;;;3.30;59.90;;;;;;4955086;28;20042;-63
2021/03/19 05:40:40;;;;;;;16.38;7.32;;;3.30;59.80;;;;;;4952198;28;20052;-63
2021/03/19 05:43:20;;;;;;;15.40;7.25;;;3.30;59.80;;;;;;4951395;28;20077;-63
2021/03/19 05:45:59;;;;;;;13.85;7.30;;;3.30;59.70;;;;;;4948633;28;20038;-63
2021/03/19 05:48:28;;;;;;;13.60;7.72;;;3.30;59.80;;;;;;4950142;28;20043;-62
2021/03/19 05:50:55;;;;;;;19.60;8.27;;;3.30;59.90;;;;;;4944710;28;20050;-62
2021/03/19 05:53:34;;;;;;;13.73;7.40;;;3.30;60.00;;;;;;4955177;28;20049;-62
2021/03/19 05:56:00;;;;;;;11.82;7.07;;;3.30;59.90;;;;;;4948348;28;20519;-62
2021/03/19 05:58:29;;;;;;;15.70;8.00;;;3.30;59.90;;;;;;4945926;28;20046;-62
2021/03/19 06:00:56;;;;;;;14.90;7.15;;;3.40;60.00;;;;;;4943989;28;20065;-62
2021/03/19 06:03:23;;;;;;;11.10;7.30;;;3.40;60.00;;;;;;4946717;28;20031;-62
2021/03/19 06:05:56;;;;;;;18.27;7.20;;;3.40;60.10;;;;;;4952425;28;20640;-62
2021/03/19 06:08:28;;;;;;;13.60;7.60;;;3.50;60.20;;;;;;4953249;28;20666;-62
2021/03/19 06:11:07;;;;;;;13.75;8.13;;;3.50;60.20;;;;;;4952457;28;20046;-62
2021/03/19 06:13:55;;;;;;;15.07;8.88;;;3.60;60.30;;;;;;4951780;28;20085;-62
2021/03/19 06:16:38;;;;;;;16.77;7.82;;;3.70;60.30;;;;;;4948515;28;20446;-62
2021/03/19 06:19:25;;;;;;;13.80;8.27;;;3.70;60.30;;;;;;4952551;28;20035;-62
2021/03/19 06:22:20;;;;;;;14.95;8.20;;;3.70;60.40;;;;;;4953194;28;20038;-63
2021/03/19 06:24:55;;;;;;;14.77;8.05;;;3.80;60.50;;;;;;4951752;28;20122;-62
2021/03/19 06:27:32;;;;;;;15.63;7.75;;;3.90;60.50;;;;;;4950553;28;20069;-62
2021/03/19 06:30:00;;;;;;;14.13;7.70;;;4.00;60.70;;;;;;4944147;28;20435;-62
2021/03/19 06:32:31;;;;;;;16.50;8.75;;;4.00;60.70;;;;;;4939778;28;20046;-62
2021/03/19 06:35:09;;;;;;;17.75;8.50;;;4.10;60.70;;;;;;4938708;28;20628;-64
2021/03/19 06:37:38;;;;;;;15.25;8.88;;;4.10;60.70;;;;;;4938497;28;20499;-65
2021/03/19 06:40:36;;;;;;;18.10;8.93;;;4.20;60.70;;;;;;4934645;28;20039;-61
2021/03/19 06:43:22;;;;;;;12.57;7.68;;;4.30;60.70;;;;;;4942595;28;20042;-62
2021/03/19 06:46:36;;;;;;;18.23;8.15;;;4.30;60.60;;;;;;4934728;28;20054;-62
2021/03/19 06:49:05;;;;;;;13.23;7.70;;;4.40;60.70;;;;;;4937720;28;20085;-62
2021/03/19 06:51:52;;;;;;;12.48;7.72;;;4.40;60.70;;;;;;4936901;28;20814;-62
2021/03/19 06:54:22;;;;;;;12.57;7.10;;;4.50;60.90;;;;;;4935714;28;20019;-62
2021/03/19 06:57:08;;;;;;;18.40;7.40;;;4.60;61.00;;;;;;4936351;28;20402;-62
2021/03/19 06:59:44;;;;;;;11.63;7.00;;;4.70;61.00;;;;;;4943435;28;20041;-62
2021/03/19 07:02:48;;;;;;;20.17;7.05;;;4.70;61.20;;;;;;4936397;28;20116;-62
2021/03/19 07:05:42;;;;;;;16.83;7.25;;;4.80;61.20;;;;;;4932465;28;20043;-62
2021/03/19 07:08:36;;;;;;;13.75;6.90;;;4.90;61.30;;;;;;4941834;28;20031;-62
2021/03/19 07:11:23;;;;;;;19.10;7.35;;;5.10;61.40;;;;;;4934489;28;20089;-62
2021/03/19 07:13:51;;;;;;;12.27;7.38;;;5.20;61.60;;;;;;4940052;28;20050;-62
2021/03/19 07:16:49;;;;;;;18.67;7.10;;;5.30;61.70;;;;;;4930316;28;20109;-63
2021/03/19 07:19:22;;;;;;;13.38;6.45;;;5.50;61.90;;;;;;4927782;28;20100;-62
2021/03/19 07:22:13;;;;;;;10.98;6.05;;;5.60;61.90;;;;;;4937727;28;20041;-63
2021/03/19 07:25:17;;;;;;;16.15;6.13;;;5.70;61.90;;;;;;4936909;28;20039;-63
2021/03/19 07:28:17;;;;;;;8.82;5.05;;;5.90;61.90;;;;;;4943451;28;20780;-63
2021/03/19 07:31:03;;;;;;;8.05;4.40;;;6.10;61.80;;;;;;4915636;28;20134;-63
2021/03/19 07:33:47;;;;;;;8.60;4.63;;;6.20;61.60;;;;;;4930513;28;20134;-63
2021/03/19 07:36:17;;;;;;;7.53;3.80;;;6.30;61.30;;;;;;4925909;28;20053;-63
2021/03/19 07:38:51;;;;;;;10.10;3.92;;;6.50;61.10;;;;;;4939898;28;20062;-63
2021/03/19 07:41:37;;;;;;;8.00;4.15;;;6.60;60.80;;;;;;4923794;28;20229;-63
2021/03/19 07:44:35;;;;;;;5.63;3.65;;;6.70;60.70;;;;;;4925020;28;20144;-63
2021/03/19 07:47:27;;;;;;;5.15;3.63;;;6.80;60.50;;;;;;4917524;28;20456;-63
2021/03/19 07:50:14;;;;;;;4.63;3.20;;;7.00;60.20;;;;;;4917144;28;20043;-62
2021/03/19 07:52:45;;;;;;;7.43;3.33;;;7.00;59.70;;;;;;4921442;28;20097;-63
2021/03/19 07:55:14;;;;;;;6.80;3.15;;;7.10;59.40;;;;;;4946033;28;20251;-62
2021/03/19 07:57:57;;;;;;;8.68;3.83;;;7.20;59.20;;;;;;4950974;28;20145;-63
2021/03/19 08:00:51;;;;;;;11.77;3.85;;;7.30;59.20;;;;;;4936704;28;20043;-62
2021/03/19 08:03:27;;;;;;;7.22;2.92;;;7.40;59.20;;;;;;4942302;28;20078;-62
2021/03/19 08:05:53;;;;;;;5.38;3.25;;;7.50;58.90;;;;;;4946142;28;20041;-59
2021/03/19 08:08:34;;;;;;;10.93;4.00;;;7.60;58.70;;;;;;4946458;28;20032;-61
2021/03/19 08:11:05;;;;;;;9.85;3.70;;;7.80;58.70;;;;;;4944561;28;20066;-63
2021/03/19 08:14:05;;;;;;;7.95;3.63;;;8.00;58.50;;;;;;4944248;28;20927;-62
2021/03/19 08:16:48;;;;;;;6.60;4.18;;;8.20;58.30;;;;;;4942464;28;20894;-62
2021/03/19 08:19:46;;;;;;;5.22;3.53;;;8.30;57.90;;;;;;4941579;28;20137;-62
2021/03/19 08:22:41;;;;;;;7.70;4.15;;;8.30;57.80;;;;;;4945960;28;20053;-62
2021/03/19 08:25:27;;;;;;;5.90;3.85;;;8.30;57.80;;;;;;4942052;28;20043;-61
2021/03/19 08:28:26;;;;;;;7.78;4.18;;;8.30;57.70;;;;;;4943690;28;20497;-62
2021/03/19 08:31:04;;;;;;;9.77;4.38;;;8.40;57.70;;;;;;4908793;23;20057;-62
2021/03/19 08:33:46;;;;;;;8.88;4.85;;;8.50;57.80;;;;;;4888206;28;20039;-62
2021/03/19 08:36:24;;;;;;;5.85;3.75;;;8.50;57.90;;;;;;4924046;28;20044;-61
2021/03/19 08:38:53;;;;;;;9.65;3.72;;;8.70;58.20;;;;;;4933239;28;20063;-61
2021/03/19 08:41:47;;;;;;;6.63;3.53;;;9.00;58.40;;;;;;4925746;28;20066;-61
2021/03/19 08:44:17;;;;;;;7.90;3.80;;;;;;;;;;4918311;28;20043;-62
2021/03/19 08:46:43;;;;;;;6.97;3.60;;;;;;;;;;4901638;28;20482;-62
2021/03/19 08:49:16;;;;;;;7.13;3.70;;;;;;;;;;4904816;29;20067;-62
2021/03/19 08:51:47;;;;;;;9.75;3.47;;;;;;;;;;4907685;28;20050;-62
2021/03/19 08:54:15;;;;;;;13.40;3.50;;;;;;;;;;4917729;28;20044;-62
2021/03/19 08:56:49;;;;;;;5.50;2.78;;;;;;;;;;4915065;28;20047;-62
2021/03/19 08:59:30;;;;;;;8.05;3.67;;;;;;;;;;4907768;28;20044;-62
2021/03/19 09:01:57;;;;;;;6.82;3.08;;;;;;;;;;4903092;28;20686;-62
2021/03/19 09:04:42;;;;;;;8.23;3.75;;;;;;;;;;4911646;29;20126;-62
2021/03/19 09:07:22;;;;;;;10.02;3.30;;;;;;;;;;4912918;29;20327;-62
2021/03/19 09:09:49;;;;;;;7.53;3.50;;;;;;;;;;4907916;28;20217;-62
2021/03/19 09:12:20;;;;;;;6.25;3.35;;;;;;;;;;4908839;28;20052;-62
2021/03/19 09:14:48;;;;;;;7.35;3.47;;;;;;;;;;4916945;28;20250;-62
2021/03/19 09:17:49;;;;;;;8.70;3.72;;;9.50;58.50;;;;;;4919077;28;20043;-63
2021/03/19 09:20:24;;;;;;;7.22;3.40;;;;;;;;;;4910814;28;20044;-63
2021/03/19 09:23:04;;;;;;;6.90;2.90;;;;;;;;;;4922990;28;20118;-62
2021/03/19 09:25:42;;;;;;;5.20;3.00;;;;;;;;;;4926057;28;20043;-62
2021/03/19 09:28:27;;;;;;;4.28;2.88;;;;;;;;;;4925603;28;20531;-62
2021/03/19 09:30:53;;;;;;;7.05;2.95;;;;;;;;;;4904197;28;20126;-63
2021/03/19 09:33:38;;;;;;;5.90;3.00;;;;;;;;;;4909395;28;20039;-63
2021/03/19 09:36:04;;;;;;;9.73;3.85;;;;;;;;;;4915953;28;20808;-64
2021/03/19 09:38:30;;;;;;;6.72;3.40;;;;;;;;;;4907194;28;20478;-62
2021/03/19 09:41:01;;;;;;;6.18;3.47;;;14.20;48.30;;;;;;4912847;28;20079;-63
2021/03/19 09:43:48;;;;;;;8.68;3.50;;;14.10;47.40;;;;;;4912484;29;20048;-63
2021/03/19 09:46:29;;;;;;;7.80;3.67;;;14.50;46.90;;;;;;4922412;28;20532;-63
2021/03/19 09:49:09;;;;;;;5.70;3.45;;;14.70;46.10;;;;;;4911021;28;20596;-63
2021/03/19 09:51:46;;;;;;;6.38;3.30;;;14.80;45.60;;;;;;4909278;28;20706;-62
2021/03/19 09:54:16;;;;;;;7.65;3.00;;;14.80;45.30;;;;;;4919991;28;20581;-62
2021/03/19 09:56:42;;;;;;;7.18;3.13;;;14.70;45.50;;;;;;4916288;28;20031;-63
2021/03/19 09:59:08;;;;;;;6.13;3.42;;;;;;;;;;4907428;28;20130;-63
2021/03/19 10:01:40;;;;;;;11.00;3.25;;;;;;;;;;4909341;29;20070;-63
2021/03/19 10:04:08;;;;;;;5.35;3.13;;;;;;;;;;4919552;29;20035;-64
2021/03/19 10:06:45;;;;;;;7.55;3.05;;;;;;;;;;4927716;28;20035;-63
2021/03/19 10:09:18;;;;;;;5.30;3.42;;;14.90;45.80;;;;;;4903245;29;20038;-62
2021/03/19 10:11:58;;;;;;;10.40;3.00;;;14.90;43.40;;;;;;4917857;28;20043;-63
2021/03/19 10:14:28;;;;;;;5.90;3.25;;;14.70;43.50;;;;;;4931628;28;20032;-63
2021/03/19 10:17:31;;;;;;;4.53;2.80;;;14.50;43.60;;;;;;4906281;28;20039;-62
2021/03/19 10:20:23;;;;;;;7.00;2.60;;;14.30;43.50;;;;;;4907800;28;20035;-63
2021/03/19 10:22:52;;;;;;;5.78;2.72;;;13.90;43.70;;;;;;4906307;28;20032;-63
2021/03/19 10:25:25;;;;;;;3.72;2.47;;;13.60;43.80;;;;;;4913260;29;20179;-62
2021/03/19 10:27:55;;;;;;;4.25;2.58;;;13.40;44.10;;;;;;4905577;29;20056;-62
2021/03/19 10:30:44;;;;;;;5.15;2.05;;;13.10;44.40;;;;;;4909187;28;20147;-65
2021/03/19 10:33:16;;;;;;;3.20;1.92;;;12.80;44.80;;;;;;4925404;28;20053;-63
2021/03/19 10:35:49;;;;;;;5.32;2.25;;;12.60;45.30;;;;;;4917055;28;20559;-64
2021/03/19 10:38:45;;;;;;;3.20;2.05;;;12.40;45.60;;;;;;4930653;28;20083;-64
2021/03/19 10:41:21;;;;;;;4.53;1.90;;;12.30;45.90;;;;;;4943001;28;20035;-63
2021/03/19 10:43:56;;;;;;;2.67;1.88;;;12.10;46.20;;;;;;4947378;28;20588;-63
2021/03/19 10:46:39;;;;;;;5.75;2.10;;;12.10;46.30;;;;;;4932911;28;20039;-63
2021/03/19 10:49:14;;;;;;;4.32;2.50;;;12.00;46.40;;;;;;4935241;28;20043;-63
2021/03/19 10:52:03;;;;;;;2.72;1.85;;;11.80;46.60;;;;;;4935161;28;20043;-64
2021/03/19 10:54:33;;;;;;;3.38;1.83;;;11.80;46.80;;;;;;4930388;28;20062;-62
2021/03/19 10:57:22;;;;;;;2.08;1.63;;;11.80;46.90;;;;;;4927897;28;20063;-64
2021/03/19 10:59:50;;;;;;;3.67;2.13;;;11.80;47.00;;;;;;4926613;28;20086;-63
2021/03/19 11:02:25;;;;;;;6.57;3.10;;;12.00;47.30;;;;;;4940151;28;20086;-64
2021/03/19 11:04:59;;;;;;;7.05;3.40;;;12.30;47.30;;;;;;4936601;28;20767;-64
2021/03/19 11:07:25;;;;;;;5.93;3.08;;;12.60;47.10;;;;;;4934760;28;20128;-64
2021/03/19 11:10:12;;;;;;;6.70;3.38;;;13.00;47.00;;;;;;4929453;28;20114;-63
2021/03/19 11:12:52;;;;;;;7.43;3.92;;;13.60;46.40;;;;;;4935995;28;20143;-64
2021/03/19 11:15:37;;;;;;;5.07;3.25;;;14.10;45.60;;;;;;4929787;28;20066;-64
2021/03/19 11:18:42;;;;;;;4.28;2.80;;;14.30;44.70;;;;;;4926701;28;20050;-64
2021/03/19 11:21:07;;;;;;;4.82;3.35;;;14.80;44.40;;;;;;4887201;29;20095;-64
2021/03/19 11:23:49;;;;;;;4.15;3.20;;;15.00;43.70;;;;;;4894179;29;20414;-64
2021/03/19 11:26:18;;;;;;;3.90;2.50;;;15.30;43.50;;;;;;4937727;28;20050;-64
2021/03/19 11:28:47;;;;;;;2.90;1.63;;;15.90;42.60;;;;;;4910192;28;20792;-64
2021/03/19 11:31:28;;;;;;;1.30;1.20;;;16.30;41.60;;;;;;4907186;29;20070;-64
2021/03/19 11:34:03;;;;;;;4.10;1.38;;;16.50;40.00;;;;;;4906194;28;20098;-64
2021/03/19 11:36:49;;;;;;;2.05;1.10;;;16.50;40.70;;;;;;4913547;28;20083;-64
2021/03/19 11:39:31;;;;;;;5.07;1.58;;;16.50;39.60;;;;;;4906881;28;20031;-65
2021/03/19 11:41:57;;;;;;;2.70;1.60;;;16.30;39.70;;;;;;4904757;28;20050;-65
2021/03/19 11:44:22;;;;;;;2.70;1.60;;;16.20;40.10;;;;;;4903302;29;20036;-65
2021/03/19 11:46:48;;;;;;;1.92;1.50;;;16.60;40.20;;;;;;4904127;28;20035;-64
2021/03/19 11:49:15;;;;;;;2.28;1.42;;;16.90;39.00;;;;;;4918056;28;20047;-64
2021/03/19 11:51:41;;;;;;;2.80;1.88;;;16.90;38.30;;;;;;4926229;28;20435;-65
2021/03/19 11:54:09;;;;;;;1.70;1.40;;;16.70;37.80;;;;;;4931077;28;20035;-65
2021/03/19 11:56:37;;;;;;;4.32;1.60;;;16.30;38.20;;;;;;4931867;28;20082;-65
2021/03/19 11:59:04;;;;;;;2.10;1.63;;;15.90;38.70;;;;;;4912817;28;20036;-65
2021/03/19 12:01:31;;;;;;;2.83;1.55;;;15.70;38.80;;;;;;4913300;28;20086;-64
2021/03/19 12:03:58;;;;;;;4.45;2.00;;;15.30;39.60;;;;;;4905388;28;20044;-64
2021/03/19 12:06:28;;;;;;;3.45;1.85;;;15.10;40.10;;;;;;4908680;29;20039;-64
2021/03/19 12:08:54;;;;;;;3.65;1.60;;;14.90;40.50;;;;;;4909269;28;20063;-64
2021/03/19 12:11:37;;;;;;;4.22;1.85;;;14.80;40.90;;;;;;4916170;28;20209;-64
2021/03/19 12:14:04;;;;;;;4.15;1.80;;;14.70;41.00;;;;;;4900824;29;20063;-63
2021/03/19 12:16:30;;;;;;;3.55;1.63;;;14.70;40.70;;;;;;4907844;29;20035;-65
2021/03/19 12:18:56;;;;;;;1.95;1.50;;;14.60;40.80;;;;;;4913606;28;20521;-63
2021/03/19 12:21:23;;;;;;;4.20;1.80;;;14.50;40.70;;;;;;4906624;28;20044;-64
2021/03/19 12:23:49;;;;;;;3.05;2.00;;;14.30;41.10;;;;;;4904618;28;20031;-64
2021/03/19 12:26:14;;;;;;;3.67;2.08;;;14.30;41.20;;;;;;4922329;28;20421;-64
2021/03/19 12:28:40;;;;;;;2.88;1.63;;;14.30;41.50;;;;;;4907645;28;20036;-64
2021/03/19 12:31:06;;;;;;;3.28;2.03;;;14.40;41.80;;;;;;4898048;29;20035;-65
2021/03/19 12:33:36;;;;;;;1.98;1.65;;;14.70;41.80;;;;;;4918362;28;20571;-64
2021/03/19 12:36:03;;;;;;;4.05;1.75;;;15.00;41.40;;;;;;4904868;28;20043;-64
2021/03/19 12:38:29;;;;;;;3.08;1.52;;;15.30;40.80;;;;;;4919662;28;20127;-64
2021/03/19 12:40:57;;;;;;;1.50;1.40;;;15.50;40.30;;;;;;4912528;28;20153;-64
2021/03/19 12:43:23;;;;;;;2.63;1.40;;;15.40;39.20;;;;;;4923662;28;20052;-65
2021/03/19 12:45:51;;;;;;;1.50;1.30;;;15.20;39.40;;;;;;4910148;28;20040;-64
2021/03/19 12:48:17;;;;;;;3.22;1.10;;;15.10;40.00;;;;;;4913976;28;20135;-64
2021/03/19 12:50:42;;;;;;;2.08;1.30;;;15.20;40.20;;;;;;4910834;28;20043;-65
2021/03/19 12:53:13;;;;;;;1.15;1.05;;;15.30;40.00;;;;;;4913163;28;20054;-65
2021/03/19 12:55:39;;;;;;;2.75;1.05;;;15.30;39.40;;;;;;4907048;28;20055;-65
2021/03/19 12:58:05;;;;;;;1.55;0.80;;;15.20;39.50;;;;;;4918598;28;20043;-65
2021/03/19 13:00:33;;;;;;;2.80;0.80;;;15.20;39.30;;;;;;4898872;28;20044;-65
2021/03/19 13:02:59;;;;;;;3.47;1.25;;;15.10;39.00;;;;;;4919559;28;20047;-64
2021/03/19 13:05:26;;;;;;;1.48;0.90;;;14.90;39.10;;;;;;4912077;28;20044;-64
2021/03/19 13:07:53;;;;;;;1.05;0.95;;;14.80;40.00;;;;;;4892592;28;20224;-64
2021/03/19 13:10:20;;;;;;;0.80;0.80;;;15.00;40.20;;;;;;4908467;29;20050;-64
2021/03/19 13:12:48;;;;;;;1.60;0.95;;;15.00;39.60;;;;;;4907490;29;20053;-64
2021/03/19 13:15:16;;;;;;;1.40;1.10;;;14.80;39.30;;;;;;4910379;28;20091;-64
2021/03/19 13:17:45;;;;;;;2.97;1.20;;;14.60;40.30;;;;;;4922707;28;20054;-64
2021/03/19 13:20:11;;;;;;;3.70;1.15;;;14.50;40.30;;;;;;4900294;28;20047;-64
2021/03/19 13:22:39;;;;;;;0.85;0.85;;;14.50;40.50;;;;;;4905557;29;20571;-64
2021/03/19 13:25:10;;;;;;;2.47;1.27;;;14.50;40.30;;;;;;4907205;29;20078;-64
2021/03/19 13:27:35;;;;;;;1.20;0.98;;;14.50;40.50;;;;;;4922248;28;20039;-65
2021/03/19 13:30:04;;;;;;;1.05;0.95;;;14.60;40.70;;;;;;4910915;29;20656;-64
2021/03/19 13:32:29;;;;;;;2.40;0.90;;;14.80;40.50;;;;;;4909747;28;20048;-64